Filia Joy — 3FIN9 — position and weather

sailwx.info

Track history (hours):
 
Tides and Currents Weather Stations Pressure Air Temp Water Temp Dewpoint Dewpoint Depression Visibility Wind Speed Wind Dir Waves Ship Positions

Filia Joy

Last reported at 2015-Mar-26 02:13 UTC. Time now 2015-Apr-18 15:08 UTC.
Position N 01°16' E 104°12'.
Warning: this ship's position is 23 days out of date.

Length 190 m; draft 12.7 m.

Type: Ship. MMSI: 371999000.

Date/timePositionNaut miles runAvg speedWind from/ knotsBaromVisibWave heightAir tempDewpointWater temp
2015-Mar-26 02:13N 01°16' E 104°12'913.5
2015-Mar-26 01:32N 01°15' E 104°03'5 4.8
2015-Mar-26 00:25N 01°17' E 103°58'0 0.0
2015-Mar-25 23:31N 01°17' E 103°58'0 0.0
2015-Mar-25 22:10N 01°17' E 103°58'0 0.1
2015-Mar-25 21:31N 01°16' E 103°58'0 0.1
2015-Mar-25 20:25N 01°17' E 103°58'0 0.0
2015-Mar-25 19:25N 01°17' E 103°58'0 0.1
2015-Mar-25 18:19N 01°17' E 103°57'0 0.0
2015-Mar-25 17:19N 01°17' E 103°57'0 0.0
2015-Mar-25 16:19N 01°17' E 103°57'0 0.0
2015-Mar-25 14:25N 01°17' E 103°57'0 0.0
2015-Mar-25 13:31N 01°17' E 103°57'0 0.0
2015-Mar-25 12:25N 01°17' E 103°57'0 0.0
2015-Mar-25 11:28N 01°17' E 103°57'0 0.0
2015-Mar-25 10:33N 01°17' E 103°57'0 0.0
2015-Mar-25 09:32N 01°17' E 103°57'0 0.5
2015-Mar-25 08:32N 01°16' E 103°58'3 3.4
2015-Mar-25 07:33N 01°15' E 104°01'4 3.7
2015-Mar-25 06:33N 01°14' E 103°57'5 5.4
2015-Mar-25 05:33N 01°12' E 103°53'75 9.2
2015-Mar-24 21:25N 01°40' E 102°43'1011.1
2015-Mar-24 20:32N 01°44' E 102°35'  
Track history (hours):
 
Tides and Currents Weather Stations Pressure Air Temp Water Temp Dewpoint Dewpoint Depression Visibility Wind Speed Wind Dir Waves Ship Positions

Filia Joy

Last reported at 2015-Mar-26 02:13 UTC. Time now 2015-Apr-18 15:08 UTC.
Position N 01°16' E 104°12'.
Warning: this ship's position is 23 days out of date.

Length 190 m; draft 12.7 m.

Type: Ship. MMSI: 371999000.

Date/timePositionNaut miles runAvg speedWind from/ knotsBaromVisibWave heightAir tempDewpointWater temp
2015-Mar-26 02:13N 01°16' E 104°12'913.5
2015-Mar-26 01:32N 01°15' E 104°03'5 4.8
2015-Mar-26 00:25N 01°17' E 103°58'0 0.0
2015-Mar-25 23:31N 01°17' E 103°58'0 0.0
2015-Mar-25 22:10N 01°17' E 103°58'0 0.1
2015-Mar-25 21:31N 01°16' E 103°58'0 0.1
2015-Mar-25 20:25N 01°17' E 103°58'0 0.0
2015-Mar-25 19:25N 01°17' E 103°58'0 0.1
2015-Mar-25 18:19N 01°17' E 103°57'0 0.0
2015-Mar-25 17:19N 01°17' E 103°57'0 0.0
2015-Mar-25 16:19N 01°17' E 103°57'0 0.0
2015-Mar-25 14:25N 01°17' E 103°57'0 0.0
2015-Mar-25 13:31N 01°17' E 103°57'0 0.0
2015-Mar-25 12:25N 01°17' E 103°57'0 0.0
2015-Mar-25 11:28N 01°17' E 103°57'0 0.0
2015-Mar-25 10:33N 01°17' E 103°57'0 0.0
2015-Mar-25 09:32N 01°17' E 103°57'0 0.5
2015-Mar-25 08:32N 01°16' E 103°58'3 3.4
2015-Mar-25 07:33N 01°15' E 104°01'4 3.7
2015-Mar-25 06:33N 01°14' E 103°57'5 5.4
2015-Mar-25 05:33N 01°12' E 103°53'75 9.2
2015-Mar-24 21:25N 01°40' E 102°43'1011.1
2015-Mar-24 20:32N 01°44' E 102°35'  

Dump ship's entire track history